createdAt,value
2022-10-11T00:00:36.206Z,16.09
2022-10-11T00:03:03.296Z,15.98
2022-10-11T00:05:30.372Z,15.86
2022-10-11T00:07:57.126Z,15.85
2022-10-11T00:10:24.652Z,15.89
2022-10-11T00:12:52.598Z,15.57
2022-10-11T00:15:21.240Z,15.70
2022-10-11T00:17:48.156Z,15.86
2022-10-11T00:20:15.045Z,15.87
2022-10-11T00:22:41.936Z,15.80
2022-10-11T00:25:09.778Z,15.73
2022-10-11T00:27:36.782Z,15.79
2022-10-11T00:30:04.414Z,15.56
2022-10-11T00:32:32.631Z,15.68
2022-10-11T00:35:04.608Z,15.87
2022-10-11T00:37:35.062Z,15.72
2022-10-11T00:40:01.852Z,15.64
2022-10-11T00:42:28.668Z,15.74
2022-10-11T00:45:19.463Z,15.62
2022-10-11T00:47:46.179Z,15.55
2022-10-11T00:50:22.309Z,15.30
2022-10-11T00:52:56.132Z,15.15
2022-10-11T00:55:23.249Z,15.59
2022-10-11T00:57:50.057Z,15.46
2022-10-11T01:00:16.808Z,15.34
2022-10-11T01:02:43.906Z,15.49
2022-10-11T01:05:28.664Z,15.19
2022-10-11T01:07:56.565Z,15.20
2022-10-11T01:10:23.276Z,14.99
2022-10-11T01:13:10.306Z,15.11
2022-10-11T01:15:39.972Z,15.35
2022-10-11T01:18:08.596Z,15.20
2022-10-11T01:20:44.559Z,15.30
2022-10-11T01:23:31.814Z,15.30
2022-10-11T01:26:02.091Z,15.15
2022-10-11T01:28:29.602Z,15.07
2022-10-11T01:30:57.319Z,15.00
2022-10-11T01:33:44.318Z,14.94
2022-10-11T01:36:17.134Z,14.84
2022-10-11T01:38:48.003Z,14.95
2022-10-11T01:41:19.972Z,14.70
2022-10-11T01:43:46.851Z,14.82
2022-10-11T01:46:13.621Z,14.84
2022-10-11T01:48:54.050Z,14.66
2022-10-11T01:51:24.778Z,14.39
2022-10-11T01:54:10.888Z,14.62
2022-10-11T01:56:37.644Z,14.56
2022-10-11T01:59:23.610Z,14.53
2022-10-11T02:02:02.770Z,14.80
2022-10-11T02:04:33.834Z,14.86
2022-10-11T02:07:07.626Z,14.78
2022-10-11T02:09:37.948Z,14.59
2022-10-11T02:12:10.329Z,14.88
2022-10-11T02:14:39.041Z,14.70
2022-10-11T02:17:10.593Z,14.57
2022-10-11T02:19:38.932Z,14.77
2022-10-11T02:22:06.613Z,14.64
2022-10-11T02:24:36.882Z,14.59
2022-10-11T02:27:04.577Z,14.25
2022-10-11T02:29:32.280Z,14.30
2022-10-11T02:31:58.997Z,14.20
2022-10-11T02:34:34.166Z,14.23
2022-10-11T02:37:03.628Z,14.57
2022-10-11T02:39:45.683Z,14.44
2022-10-11T02:42:17.791Z,14.34
2022-10-11T02:44:46.797Z,14.51
2022-10-11T02:47:13.654Z,14.07
2022-10-11T02:49:40.515Z,14.31
2022-10-11T02:52:07.656Z,14.35
2022-10-11T02:54:34.863Z,14.16
2022-10-11T02:57:01.582Z,14.10
2022-10-11T02:59:29.125Z,14.14
2022-10-11T03:01:55.954Z,14.38
2022-10-11T03:04:22.922Z,14.36
2022-10-11T03:06:50.548Z,14.29
2022-10-11T03:09:17.536Z,13.98
2022-10-11T03:11:44.243Z,14.02
2022-10-11T03:14:11.907Z,14.05
2022-10-11T03:16:38.697Z,14.09
2022-10-11T03:19:05.611Z,14.13
2022-10-11T03:21:32.673Z,14.17
2022-10-11T03:23:59.413Z,14.18
2022-10-11T03:26:27.199Z,14.23
2022-10-11T03:28:54.855Z,13.96
2022-10-11T03:31:23.733Z,14.10
2022-10-11T03:33:50.678Z,14.01
2022-10-11T03:36:17.689Z,13.90
2022-10-11T03:38:44.488Z,13.95
2022-10-11T03:41:11.220Z,14.17
2022-10-11T03:43:38.399Z,14.06
2022-10-11T03:46:05.466Z,13.87
2022-10-11T03:48:32.832Z,14.12
2022-10-11T03:50:59.834Z,14.12
2022-10-11T03:53:26.630Z,14.31
2022-10-11T03:55:54.330Z,14.43
2022-10-11T03:58:23.129Z,14.54
2022-10-11T04:00:50.171Z,14.25
2022-10-11T04:03:17.174Z,14.06
2022-10-11T04:05:43.947Z,14.17
2022-10-11T04:08:28.799Z,14.40
2022-10-11T04:10:55.850Z,14.35
2022-10-11T04:13:22.634Z,14.21
2022-10-11T04:15:49.361Z,14.22
2022-10-11T04:18:16.362Z,14.20
2022-10-11T04:20:43.104Z,14.10
2022-10-11T04:23:09.876Z,14.26
2022-10-11T04:25:38.215Z,14.08
2022-10-11T04:28:05.057Z,14.44
2022-10-11T04:30:31.854Z,14.27
2022-10-11T04:32:58.872Z,14.46
2022-10-11T04:35:25.762Z,14.35
2022-10-11T04:37:52.493Z,14.41
2022-10-11T04:40:19.695Z,14.48
2022-10-11T04:42:46.530Z,14.67
2022-10-11T04:45:13.279Z,14.35
2022-10-11T04:47:41.171Z,14.29
2022-10-11T04:50:08.109Z,14.38
2022-10-11T04:52:34.918Z,14.25
2022-10-11T04:55:02.075Z,14.22
2022-10-11T04:57:28.837Z,14.33
2022-10-11T04:59:55.644Z,14.42
2022-10-11T05:02:24.108Z,14.11
2022-10-11T05:04:51.205Z,14.38
2022-10-11T05:07:17.966Z,14.29
2022-10-11T05:09:44.965Z,14.12
2022-10-11T05:12:11.781Z,14.08
2022-10-11T05:14:38.632Z,14.34
2022-10-11T05:17:06.442Z,14.19
2022-10-11T05:19:33.192Z,14.40
2022-10-11T05:21:59.963Z,14.19
2022-10-11T05:24:27.044Z,14.30
2022-10-11T05:26:53.885Z,14.11
2022-10-11T05:29:20.839Z,14.45
2022-10-11T05:31:47.856Z,14.38
2022-10-11T05:34:14.752Z,14.51
2022-10-11T05:36:41.498Z,14.63
2022-10-11T05:39:08.795Z,14.63
2022-10-11T05:41:35.681Z,14.66
2022-10-11T05:44:02.770Z,14.93
2022-10-11T05:46:29.812Z,14.89
2022-10-11T05:48:56.713Z,14.95
2022-10-11T05:51:23.516Z,15.16
2022-10-11T05:53:50.542Z,14.86
2022-10-11T05:56:19.239Z,14.85
2022-10-11T05:58:46.280Z,14.77
2022-10-11T06:01:22.376Z,15.00
2022-10-11T06:03:49.707Z,15.06
2022-10-11T06:06:16.611Z,14.96
2022-10-11T06:08:43.781Z,15.04
2022-10-11T06:11:12.153Z,14.87
2022-10-11T06:13:39.318Z,15.00
2022-10-11T06:16:06.868Z,15.16
2022-10-11T06:18:34.505Z,15.43
2022-10-11T06:21:01.315Z,15.42
2022-10-11T06:23:28.301Z,15.21
2022-10-11T06:26:09.324Z,15.19
2022-10-11T06:28:37.234Z,15.48
2022-10-11T06:31:05.245Z,15.34
2022-10-11T06:33:32.287Z,15.49
2022-10-11T06:35:59.922Z,15.57
2022-10-11T06:38:27.289Z,15.45
2022-10-11T06:40:54.030Z,15.46
2022-10-11T06:43:20.831Z,15.52
2022-10-11T06:45:47.849Z,15.62
2022-10-11T06:48:14.615Z,15.80
2022-10-11T06:50:59.075Z,15.90
2022-10-11T06:53:27.527Z,15.93
2022-10-11T06:55:54.286Z,16.23
2022-10-11T06:58:21.037Z,16.06
2022-10-11T07:00:48.425Z,16.22
2022-10-11T07:03:16.231Z,16.44
2022-10-11T07:05:43.021Z,16.93
2022-10-11T07:08:10.299Z,16.82
2022-10-11T07:10:37.145Z,16.95
2022-10-11T07:13:03.905Z,17.17
2022-10-11T07:15:31.012Z,17.14
2022-10-11T07:17:58.170Z,17.28
2022-10-11T07:20:25.035Z,16.99
2022-10-11T07:22:52.061Z,17.15
2022-10-11T07:25:19.003Z,17.29
2022-10-11T07:27:45.728Z,17.38
2022-10-11T07:30:12.855Z,17.40
2022-10-11T07:32:39.706Z,17.18
2022-10-11T07:35:06.694Z,17.44
2022-10-11T07:37:34.014Z,17.73
2022-10-11T07:40:00.770Z,17.25
2022-10-11T07:42:27.519Z,17.49
2022-10-11T07:44:54.570Z,17.61
2022-10-11T07:47:21.331Z,17.75
2022-10-11T07:49:48.292Z,17.84
2022-10-11T07:52:15.274Z,17.89
2022-10-11T07:54:42.213Z,17.92
2022-10-11T07:57:08.937Z,18.27
2022-10-11T07:59:36.088Z,18.19
2022-10-11T08:02:02.942Z,18.07
2022-10-11T08:04:30.158Z,18.07
2022-10-11T08:06:56.908Z,18.21
2022-10-11T08:09:23.656Z,18.41
2022-10-11T08:11:50.674Z,18.48
2022-10-11T08:14:18.343Z,18.86
2022-10-11T08:16:45.089Z,19.09
2022-10-11T08:19:12.349Z,19.08
2022-10-11T08:21:39.121Z,18.93
2022-10-11T08:24:06.314Z,18.90
2022-10-11T08:26:33.729Z,18.80
2022-10-11T08:29:04.585Z,19.32
2022-10-11T08:31:31.527Z,19.63
2022-10-11T08:33:58.574Z,19.78
2022-10-11T08:36:25.356Z,19.91
2022-10-11T08:38:52.264Z,20.42
2022-10-11T08:41:37.337Z,20.27
2022-10-11T08:44:09.131Z,20.58
2022-10-11T08:46:37.979Z,20.85
2022-10-11T08:49:05.458Z,20.66
2022-10-11T08:51:39.992Z,20.86
2022-10-11T08:54:11.126Z,20.93
2022-10-11T08:56:39.888Z,21.25
2022-10-11T08:59:12.368Z,21.03
2022-10-11T09:01:43.000Z,20.95
2022-10-11T09:04:16.078Z,21.03
2022-10-11T09:06:47.277Z,21.26
2022-10-11T09:09:24.402Z,21.60
2022-10-11T09:12:05.530Z,21.84
2022-10-11T09:14:53.813Z,21.77
2022-10-11T09:17:26.696Z,21.68
2022-10-11T09:20:16.684Z,22.32
2022-10-11T09:22:52.760Z,22.04
2022-10-11T09:25:27.221Z,22.04
2022-10-11T09:28:03.319Z,22.25
2022-10-11T09:30:30.345Z,22.47
2022-10-11T09:33:03.911Z,23.09
2022-10-11T09:35:32.545Z,23.05
2022-10-11T09:38:00.445Z,22.89
2022-10-11T09:40:35.263Z,22.72
2022-10-11T09:43:02.213Z,22.89
2022-10-11T09:45:28.873Z,23.06
2022-10-11T09:47:56.351Z,23.16
2022-10-11T09:50:25.771Z,23.56
2022-10-11T09:52:53.489Z,23.46
2022-10-11T09:55:36.917Z,23.94
2022-10-11T09:58:04.900Z,23.82
2022-10-11T10:00:33.826Z,24.06
2022-10-11T10:03:02.648Z,24.29
2022-10-11T10:05:29.304Z,24.21
2022-10-11T10:08:11.230Z,24.18
2022-10-11T10:10:39.435Z,24.42
2022-10-11T10:13:07.181Z,24.20
2022-10-11T10:15:34.938Z,24.33
2022-10-11T10:18:02.093Z,24.29
2022-10-11T10:20:31.766Z,24.06
2022-10-11T10:22:59.805Z,24.27
2022-10-11T10:25:33.252Z,24.54
2022-10-11T10:28:01.282Z,24.55
2022-10-11T10:30:33.054Z,24.24
2022-10-11T10:33:06.233Z,24.18
2022-10-11T10:35:33.343Z,24.23
2022-10-11T10:38:05.815Z,23.79
2022-10-11T10:40:43.168Z,23.92
2022-10-11T10:43:15.666Z,23.95
2022-10-11T10:46:03.511Z,23.74
2022-10-11T10:49:23.569Z,23.50
2022-10-11T10:51:38.970Z,23.48
2022-10-11T10:54:13.898Z,23.63
2022-10-11T10:56:44.111Z,23.80
2022-10-11T10:59:31.452Z,23.94
2022-10-11T11:02:06.762Z,24.08
2022-10-11T11:04:44.661Z,24.27
2022-10-11T11:07:32.936Z,24.32
2022-10-11T11:10:12.583Z,24.70
2022-10-11T11:12:57.486Z,24.47
2022-10-11T11:15:32.493Z,24.45
2022-10-11T11:18:21.202Z,24.30
2022-10-11T11:21:07.065Z,24.68
2022-10-11T11:23:51.845Z,24.69
2022-10-11T11:26:21.996Z,24.26
2022-10-11T11:28:57.991Z,24.77
2022-10-11T11:31:29.579Z,25.09
2022-10-11T11:34:15.172Z,25.00
2022-10-11T11:36:58.662Z,24.95
2022-10-11T11:39:26.353Z,24.99
2022-10-11T11:41:54.111Z,25.01
2022-10-11T11:44:27.161Z,25.14
2022-10-11T11:47:01.807Z,25.48
2022-10-11T11:49:31.152Z,25.31
2022-10-11T11:51:58.170Z,25.23
2022-10-11T11:54:43.959Z,25.26
2022-10-11T11:57:29.769Z,25.36
2022-10-11T12:00:25.988Z,25.46
2022-10-11T12:02:52.910Z,24.97
2022-10-11T12:05:25.228Z,25.11
2022-10-11T12:07:53.883Z,25.16
2022-10-11T12:10:25.143Z,24.79
2022-10-11T12:13:10.781Z,24.70
2022-10-11T12:15:37.754Z,24.75
2022-10-11T12:18:05.889Z,24.28
2022-10-11T12:20:33.436Z,24.12
2022-10-11T12:23:01.424Z,23.83
2022-10-11T12:25:33.235Z,24.23
2022-10-11T12:28:01.335Z,24.16
2022-10-11T12:30:50.896Z,24.36
2022-10-11T12:33:22.292Z,24.36
2022-10-11T12:35:55.386Z,24.47
2022-10-11T12:38:22.405Z,24.66
2022-10-11T12:40:54.363Z,24.56
2022-10-11T12:43:29.018Z,24.56
2022-10-11T12:45:55.985Z,24.69
2022-10-11T12:48:31.900Z,24.47
2022-10-11T12:51:03.799Z,24.64
2022-10-11T12:53:50.616Z,24.36
2022-10-11T12:57:03.312Z,24.28
2022-10-11T12:59:30.415Z,24.28
2022-10-11T13:02:00.016Z,23.85
2022-10-11T13:04:29.245Z,24.00
2022-10-11T13:07:06.606Z,23.89
2022-10-11T13:09:39.210Z,23.70
2022-10-11T13:12:07.605Z,23.11
2022-10-11T13:14:36.996Z,23.29
2022-10-11T13:17:03.969Z,23.29
2022-10-11T13:19:33.398Z,23.23
2022-10-11T13:22:02.465Z,23.40
2022-10-11T13:24:37.014Z,23.36
2022-10-11T13:27:04.843Z,23.27
2022-10-11T13:29:40.037Z,23.23
2022-10-11T13:32:14.055Z,23.27
2022-10-11T13:34:40.911Z,23.19
2022-10-11T13:37:08.828Z,23.15
2022-10-11T13:39:36.649Z,23.24
2022-10-11T13:42:10.859Z,23.18
2022-10-11T13:44:42.315Z,23.13
2022-10-11T13:47:19.094Z,23.19
2022-10-11T13:49:47.658Z,23.26
2022-10-11T13:52:26.077Z,23.11
2022-10-11T13:54:55.302Z,23.22
2022-10-11T13:57:22.874Z,23.07
2022-10-11T13:59:49.565Z,23.12
2022-10-11T14:02:18.453Z,23.07
2022-10-11T14:04:49.058Z,22.95
2022-10-11T14:07:25.879Z,22.87
2022-10-11T14:09:53.312Z,22.83
2022-10-11T14:12:25.885Z,22.88
2022-10-11T14:14:52.859Z,22.81
2022-10-11T14:17:20.493Z,23.03
2022-10-11T14:19:47.817Z,22.86
2022-10-11T14:22:15.817Z,22.80
2022-10-11T14:24:43.148Z,22.90
2022-10-11T14:27:11.542Z,22.87
2022-10-11T14:29:41.932Z,22.83
2022-10-11T14:32:10.935Z,22.72
2022-10-11T14:34:37.866Z,22.88
2022-10-11T14:37:04.560Z,22.79
2022-10-11T14:39:31.876Z,22.88
2022-10-11T14:41:58.942Z,22.66
2022-10-11T14:44:25.587Z,22.71
2022-10-11T14:46:54.301Z,22.62
2022-10-11T14:49:22.692Z,22.71
2022-10-11T14:51:50.013Z,22.64
2022-10-11T14:54:18.927Z,22.46
2022-10-11T14:56:46.041Z,22.54
2022-10-11T14:59:13.926Z,22.43
2022-10-11T15:01:40.747Z,22.34
2022-10-11T15:04:07.933Z,22.38
2022-10-11T15:06:36.788Z,22.43
2022-10-11T15:09:05.834Z,22.36
2022-10-11T15:11:32.956Z,22.35
2022-10-11T15:14:01.027Z,22.36
2022-10-11T15:16:27.832Z,22.32
2022-10-11T15:18:54.793Z,22.13
2022-10-11T15:21:22.710Z,22.13
2022-10-11T15:23:49.996Z,22.17
2022-10-11T15:26:18.628Z,22.17
2022-10-11T15:28:45.742Z,22.09
2022-10-11T15:31:12.559Z,22.06
2022-10-11T15:33:39.714Z,22.12
2022-10-11T15:36:07.395Z,22.06
2022-10-11T15:38:35.204Z,21.90
2022-10-11T15:41:02.230Z,22.00
2022-10-11T15:43:29.028Z,21.93
2022-10-11T15:45:55.940Z,21.90
2022-10-11T15:48:23.927Z,21.86
2022-10-11T15:50:50.857Z,21.79
2022-10-11T15:53:21.792Z,21.77
2022-10-11T15:55:49.999Z,21.60
2022-10-11T15:58:25.090Z,21.63
2022-10-11T16:00:55.431Z,21.45
2022-10-11T16:03:26.105Z,21.40
2022-10-11T16:05:53.154Z,21.37
2022-10-11T16:08:19.934Z,21.31
2022-10-11T16:10:47.632Z,21.34
2022-10-11T16:13:14.374Z,21.28
2022-10-11T16:15:43.113Z,21.11
2022-10-11T16:18:10.771Z,21.12
2022-10-11T16:20:38.601Z,20.99
2022-10-11T16:23:05.531Z,20.92
2022-10-11T16:25:32.550Z,20.85
2022-10-11T16:27:59.262Z,20.79
2022-10-11T16:30:26.651Z,20.76
2022-10-11T16:32:53.700Z,20.61
2022-10-11T16:35:23.512Z,20.66
2022-10-11T16:37:53.620Z,20.67
2022-10-11T16:40:22.427Z,20.44
2022-10-11T16:42:49.131Z,20.47
2022-10-11T16:45:16.313Z,20.35
2022-10-11T16:47:43.620Z,20.30
2022-10-11T16:50:10.484Z,20.05
2022-10-11T16:52:37.169Z,20.04
2022-10-11T16:55:04.372Z,19.93
2022-10-11T16:57:31.028Z,19.97
2022-10-11T17:00:02.141Z,20.05
2022-10-11T17:02:33.060Z,19.90
2022-10-11T17:04:59.879Z,20.02
2022-10-11T17:07:28.007Z,19.93
2022-10-11T17:09:56.203Z,19.66
2022-10-11T17:12:23.884Z,19.67
2022-10-11T17:14:51.551Z,19.79
2022-10-11T17:17:41.684Z,19.66
2022-10-11T17:20:37.723Z,19.76
2022-10-11T17:23:15.391Z,19.64
2022-10-11T17:25:51.290Z,19.59
2022-10-11T17:28:22.585Z,19.51
2022-10-11T17:30:56.502Z,19.28
2022-10-11T17:33:23.996Z,19.45
2022-10-11T17:35:51.036Z,19.31
2022-10-11T17:38:19.830Z,19.49
2022-10-11T17:40:47.479Z,19.54
2022-10-11T17:43:15.785Z,19.51
2022-10-11T17:45:42.792Z,19.40
2022-10-11T17:48:09.944Z,19.42
2022-10-11T17:50:39.888Z,19.36
2022-10-11T17:53:06.881Z,19.48
2022-10-11T17:55:34.265Z,19.43
2022-10-11T17:58:01.140Z,19.37
2022-10-11T18:00:29.716Z,19.37
2022-10-11T18:02:57.398Z,19.46
2022-10-11T18:05:24.567Z,19.64
2022-10-11T18:07:52.830Z,19.59
2022-10-11T18:10:20.062Z,19.62
2022-10-11T18:12:47.222Z,19.65
2022-10-11T18:15:14.089Z,19.39
2022-10-11T18:17:41.076Z,19.51
2022-10-11T18:20:08.501Z,19.46
2022-10-11T18:22:35.294Z,19.49
2022-10-11T18:25:02.360Z,19.50
2022-10-11T18:27:29.289Z,19.38
2022-10-11T18:29:56.326Z,19.35
2022-10-11T18:32:23.646Z,19.20
2022-10-11T18:34:50.683Z,19.34
2022-10-11T18:37:17.405Z,19.32
2022-10-11T18:39:44.384Z,19.48
2022-10-11T18:42:12.518Z,19.54
2022-10-11T18:44:39.565Z,19.48
2022-10-11T18:47:06.661Z,19.44
2022-10-11T18:49:33.428Z,19.48
2022-10-11T18:52:00.181Z,19.25
2022-10-11T18:54:27.879Z,19.11
2022-10-11T18:56:54.767Z,19.18
2022-10-11T18:59:21.624Z,19.23
2022-10-11T19:01:52.047Z,19.17
2022-10-11T19:04:19.509Z,19.12
2022-10-11T19:06:48.242Z,19.03
2022-10-11T19:09:21.882Z,19.05
2022-10-11T19:11:53.049Z,18.89
2022-10-11T19:14:22.601Z,18.89
2022-10-11T19:16:55.333Z,18.86
2022-10-11T19:19:26.553Z,18.95
2022-10-11T19:21:53.927Z,18.96
2022-10-11T19:24:27.309Z,18.89
2022-10-11T19:27:02.350Z,18.86
2022-10-11T19:29:30.978Z,18.69
2022-10-11T19:32:03.679Z,18.46
2022-10-11T19:34:35.511Z,18.65
2022-10-11T19:37:15.861Z,18.80
2022-10-11T19:39:44.242Z,18.88
2022-10-11T19:42:16.826Z,18.80
2022-10-11T19:44:46.674Z,18.51
2022-10-11T19:47:16.975Z,18.67
2022-10-11T19:49:43.721Z,18.66
2022-10-11T19:52:10.512Z,18.61
2022-10-11T19:54:43.345Z,18.45
2022-10-11T19:57:17.872Z,18.60
2022-10-11T19:59:46.528Z,18.37
2022-10-11T20:02:15.018Z,18.26
2022-10-11T20:04:57.492Z,18.38
2022-10-11T20:07:26.314Z,18.55
2022-10-11T20:09:55.941Z,18.45
2022-10-11T20:12:29.576Z,18.49
2022-10-11T20:14:56.706Z,18.46
2022-10-11T20:17:43.345Z,18.38
2022-10-11T20:20:15.477Z,18.20
2022-10-11T20:22:42.184Z,18.33
2022-10-11T20:25:08.948Z,18.41
2022-10-11T20:27:38.545Z,18.34
2022-10-11T20:30:05.515Z,18.47
2022-10-11T20:32:34.204Z,18.43
2022-10-11T20:35:02.272Z,18.36
2022-10-11T20:37:28.961Z,18.54
2022-10-11T20:39:55.596Z,18.46
2022-10-11T20:42:25.298Z,18.32
2022-10-11T20:44:54.275Z,18.32
2022-10-11T20:47:20.944Z,18.50
2022-10-11T20:49:47.980Z,18.19
2022-10-11T20:52:14.633Z,18.07
2022-10-11T20:54:41.684Z,18.05
2022-10-11T20:57:08.655Z,18.01
2022-10-11T20:59:35.746Z,17.86
2022-10-11T21:02:02.454Z,17.66
2022-10-11T21:04:29.617Z,17.62
2022-10-11T21:06:56.445Z,17.63
2022-10-11T21:09:23.206Z,17.65
2022-10-11T21:11:50.107Z,17.74
2022-10-11T21:14:17.273Z,17.45
2022-10-11T21:16:43.941Z,17.34
2022-10-11T21:19:12.340Z,17.51
2022-10-11T21:21:39.074Z,17.42
2022-10-11T21:24:06.465Z,17.61
2022-10-11T21:26:35.226Z,17.37
2022-10-11T21:29:04.069Z,17.50
2022-10-11T21:31:34.143Z,17.40
2022-10-11T21:34:02.161Z,17.30
2022-10-11T21:36:28.889Z,17.36
2022-10-11T21:38:56.163Z,17.23
2022-10-11T21:41:25.459Z,16.98
2022-10-11T21:43:52.201Z,17.25
2022-10-11T21:46:19.925Z,17.07
2022-10-11T21:48:47.294Z,17.01
2022-10-11T21:53:46.505Z,17.01
2022-10-11T21:56:13.460Z,16.90
2022-10-11T21:58:40.147Z,16.60
2022-10-11T22:01:06.914Z,16.55
2022-10-11T22:03:34.267Z,16.32
2022-10-11T22:06:04.057Z,16.67
2022-10-11T22:08:31.166Z,16.65
2022-10-11T22:10:59.080Z,16.80
2022-10-11T22:13:26.224Z,16.83
2022-10-11T22:15:53.029Z,16.78
2022-10-11T22:18:20.388Z,16.69
2022-10-11T22:20:47.124Z,16.73
2022-10-11T22:23:14.237Z,16.50
2022-10-11T22:25:41.337Z,16.35
2022-10-11T22:28:08.414Z,16.53
2022-10-11T22:30:35.199Z,16.71
2022-10-11T22:33:02.670Z,16.48
2022-10-11T22:35:31.391Z,16.39
2022-10-11T22:38:00.300Z,16.20
2022-10-11T22:40:27.504Z,16.35
2022-10-11T22:42:54.151Z,16.01
2022-10-11T22:45:20.808Z,16.20
2022-10-11T22:47:47.910Z,16.14
2022-10-11T22:50:14.628Z,16.35
2022-10-11T22:52:41.376Z,16.34
2022-10-11T22:55:08.827Z,16.23
2022-10-11T22:57:35.647Z,16.21
2022-10-11T23:00:04.041Z,16.35
2022-10-11T23:02:30.992Z,16.08
2022-10-11T23:04:58.358Z,16.18
2022-10-11T23:07:24.996Z,16.14
2022-10-11T23:09:51.946Z,16.08
2022-10-11T23:12:18.626Z,15.80
2022-10-11T23:14:45.281Z,16.00
2022-10-11T23:17:12.271Z,15.77
2022-10-11T23:19:38.947Z,15.75
2022-10-11T23:22:05.713Z,15.76
2022-10-11T23:24:32.664Z,15.76
2022-10-11T23:26:59.573Z,15.92
2022-10-11T23:29:26.259Z,15.94
2022-10-11T23:31:53.298Z,15.70
2022-10-11T23:34:21.059Z,15.73
2022-10-11T23:36:47.704Z,15.67
2022-10-11T23:39:16.221Z,15.66
2022-10-11T23:41:43.637Z,15.88
2022-10-11T23:44:10.624Z,15.65
2022-10-11T23:46:37.554Z,15.56
2022-10-11T23:49:04.320Z,15.55
2022-10-11T23:51:33.618Z,15.71
2022-10-11T23:54:00.537Z,15.84
2022-10-11T23:56:27.210Z,15.89
2022-10-11T23:58:53.929Z,15.85
